sensor_id;sensor_type;location;lat;lon;timestamp;pressure;altitude;pressure_sealevel;temperature;humidity
72096;BME280;59968;51.084;16.748;2022-08-19T00:01:37;99469.09;;;25.22;58.00
72096;BME280;59968;51.084;16.748;2022-08-19T00:04:09;99462.65;;;25.20;58.02
72096;BME280;59968;51.084;16.748;2022-08-19T00:06:39;99456.02;;;25.18;58.11
72096;BME280;59968;51.084;16.748;2022-08-19T00:09:09;99448.67;;;25.15;58.15
72096;BME280;59968;51.084;16.748;2022-08-19T00:11:37;99449.54;;;25.14;58.28
72096;BME280;59968;51.084;16.748;2022-08-19T00:14:06;99449.13;;;25.12;58.17
72096;BME280;59968;51.084;16.748;2022-08-19T00:16:36;99442.14;;;25.08;58.30
72096;BME280;59968;51.084;16.748;2022-08-19T00:19:05;99437.52;;;25.05;58.15
72096;BME280;59968;51.084;16.748;2022-08-19T00:21:33;99433.04;;;25.02;58.43
72096;BME280;59968;51.084;16.748;2022-08-19T00:24:11;99429.89;;;24.98;58.32
72096;BME280;59968;51.084;16.748;2022-08-19T00:26:39;99433.15;;;24.95;58.58
72096;BME280;59968;51.084;16.748;2022-08-19T00:29:09;99429.67;;;24.92;58.55
72096;BME280;59968;51.084;16.748;2022-08-19T00:31:36;99435.61;;;24.90;58.83
72096;BME280;59968;51.084;16.748;2022-08-19T00:34:03;99436.70;;;24.87;58.80
72096;BME280;59968;51.084;16.748;2022-08-19T00:36:31;99441.17;;;24.84;59.12
72096;BME280;59968;51.084;16.748;2022-08-19T00:39:01;99444.20;;;24.81;59.08
72096;BME280;59968;51.084;16.748;2022-08-19T00:41:29;99436.52;;;24.79;59.14
72096;BME280;59968;51.084;16.748;2022-08-19T00:44:04;99420.99;;;24.75;59.14
72096;BME280;59968;51.084;16.748;2022-08-19T00:46:35;99408.36;;;24.71;59.24
72096;BME280;59968;51.084;16.748;2022-08-19T00:49:09;99408.87;;;24.68;59.44
72096;BME280;59968;51.084;16.748;2022-08-19T00:51:41;99410.84;;;24.65;59.75
72096;BME280;59968;51.084;16.748;2022-08-19T00:54:09;99417.70;;;24.63;59.61
72096;BME280;59968;51.084;16.748;2022-08-19T00:56:36;99420.31;;;24.62;59.76
72096;BME280;59968;51.084;16.748;2022-08-19T00:59:04;99417.60;;;24.62;59.64
72096;BME280;59968;51.084;16.748;2022-08-19T01:01:40;99414.09;;;24.63;59.74
72096;BME280;59968;51.084;16.748;2022-08-19T01:04:08;99410.03;;;24.64;59.71
72096;BME280;59968;51.084;16.748;2022-08-19T01:06:36;99394.09;;;24.57;59.84
72096;BME280;59968;51.084;16.748;2022-08-19T01:09:05;99398.50;;;24.65;60.72
72096;BME280;59968;51.084;16.748;2022-08-19T01:11:36;99400.55;;;24.64;61.62
72096;BME280;59968;51.084;16.748;2022-08-19T01:14:06;99402.30;;;24.59;62.08
72096;BME280;59968;51.084;16.748;2022-08-19T01:16:34;99404.73;;;24.55;63.22
72096;BME280;59968;51.084;16.748;2022-08-19T01:19:02;99403.67;;;24.51;63.04
72096;BME280;59968;51.084;16.748;2022-08-19T01:21:43;99407.17;;;24.46;63.27
72096;BME280;59968;51.084;16.748;2022-08-19T01:24:13;99408.52;;;24.40;63.74
72096;BME280;59968;51.084;16.748;2022-08-19T01:26:42;99400.98;;;24.34;63.34
72096;BME280;59968;51.084;16.748;2022-08-19T01:29:11;99398.27;;;24.31;63.73
72096;BME280;59968;51.084;16.748;2022-08-19T01:31:38;99397.82;;;24.27;63.59
72096;BME280;59968;51.084;16.748;2022-08-19T01:34:06;99393.40;;;24.23;63.54
72096;BME280;59968;51.084;16.748;2022-08-19T01:36:40;99389.85;;;24.19;63.21
72096;BME280;59968;51.084;16.748;2022-08-19T01:39:12;99389.94;;;24.15;63.31
72096;BME280;59968;51.084;16.748;2022-08-19T01:41:40;99385.67;;;24.09;63.42
72096;BME280;59968;51.084;16.748;2022-08-19T01:44:09;99379.39;;;24.05;63.53
72096;BME280;59968;51.084;16.748;2022-08-19T01:46:47;99373.89;;;24.00;63.72
72096;BME280;59968;51.084;16.748;2022-08-19T01:49:19;99373.27;;;23.94;63.71
72096;BME280;59968;51.084;16.748;2022-08-19T01:51:48;99370.46;;;23.89;63.88
72096;BME280;59968;51.084;16.748;2022-08-19T01:54:17;99359.70;;;23.80;63.87
72096;BME280;59968;51.084;16.748;2022-08-19T01:57:02;99366.81;;;23.78;64.13
72096;BME280;59968;51.084;16.748;2022-08-19T01:59:30;99373.91;;;23.74;64.39
72096;BME280;59968;51.084;16.748;2022-08-19T02:01:58;99379.11;;;23.71;64.38
72096;BME280;59968;51.084;16.748;2022-08-19T02:04:25;99385.35;;;23.69;64.59
72096;BME280;59968;51.084;16.748;2022-08-19T02:06:53;99384.11;;;23.65;64.88
72096;BME280;59968;51.084;16.748;2022-08-19T02:09:20;99383.79;;;23.62;65.02
72096;BME280;59968;51.084;16.748;2022-08-19T02:11:47;99371.61;;;23.60;64.74
72096;BME280;59968;51.084;16.748;2022-08-19T02:14:14;99359.95;;;23.56;64.93
72096;BME280;59968;51.084;16.748;2022-08-19T02:16:43;99352.92;;;23.52;65.00
72096;BME280;59968;51.084;16.748;2022-08-19T02:19:10;99355.31;;;23.49;65.14
72096;BME280;59968;51.084;16.748;2022-08-19T02:21:36;99367.13;;;23.47;65.34
72096;BME280;59968;51.084;16.748;2022-08-19T02:24:04;99367.48;;;23.45;65.27
72096;BME280;59968;51.084;16.748;2022-08-19T02:26:35;99363.84;;;23.42;65.56
72096;BME280;59968;51.084;16.748;2022-08-19T02:29:03;99350.64;;;23.40;65.66
72096;BME280;59968;51.084;16.748;2022-08-19T02:31:30;99338.30;;;23.37;65.54
72096;BME280;59968;51.084;16.748;2022-08-19T02:33:59;99333.98;;;23.33;65.50
72096;BME280;59968;51.084;16.748;2022-08-19T02:36:25;99339.26;;;23.31;65.67
72096;BME280;59968;51.084;16.748;2022-08-19T02:38:53;99347.02;;;23.29;65.82
72096;BME280;59968;51.084;16.748;2022-08-19T02:41:25;99351.30;;;23.26;66.17
72096;BME280;59968;51.084;16.748;2022-08-19T02:43:57;99347.37;;;23.22;65.91
72096;BME280;59968;51.084;16.748;2022-08-19T02:46:48;99352.59;;;23.18;66.11
72096;BME280;59968;51.084;16.748;2022-08-19T02:49:18;99351.02;;;23.14;66.12
72096;BME280;59968;51.084;16.748;2022-08-19T02:51:46;99347.34;;;23.10;66.00
72096;BME280;59968;51.084;16.748;2022-08-19T02:54:14;99344.27;;;23.07;66.17
72096;BME280;59968;51.084;16.748;2022-08-19T02:56:42;99345.51;;;23.03;66.05
72096;BME280;59968;51.084;16.748;2022-08-19T02:59:10;99342.44;;;23.01;66.06
72096;BME280;59968;51.084;16.748;2022-08-19T03:01:39;99339.29;;;22.99;66.19
72096;BME280;59968;51.084;16.748;2022-08-19T03:04:08;99343.83;;;22.98;66.12
72096;BME280;59968;51.084;16.748;2022-08-19T03:06:38;99362.80;;;22.95;66.28
72096;BME280;59968;51.084;16.748;2022-08-19T03:09:06;99370.88;;;22.92;66.59
72096;BME280;59968;51.084;16.748;2022-08-19T03:11:33;99372.84;;;22.85;66.51
72096;BME280;59968;51.084;16.748;2022-08-19T03:14:02;99379.02;;;22.84;66.74
72096;BME280;59968;51.084;16.748;2022-08-19T03:16:32;99377.45;;;22.81;66.88
72096;BME280;59968;51.084;16.748;2022-08-19T03:19:01;99377.19;;;22.77;66.83
72096;BME280;59968;51.084;16.748;2022-08-19T03:21:31;99378.52;;;22.77;66.87
72096;BME280;59968;51.084;16.748;2022-08-19T03:24:03;99380.35;;;22.75;67.18
72096;BME280;59968;51.084;16.748;2022-08-19T03:26:31;99382.77;;;22.72;67.33
72096;BME280;59968;51.084;16.748;2022-08-19T03:29:03;99370.29;;;22.65;67.21
72096;BME280;59968;51.084;16.748;2022-08-19T03:31:32;99372.48;;;22.67;67.28
72096;BME280;59968;51.084;16.748;2022-08-19T03:34:25;99378.59;;;22.64;67.50
72096;BME280;59968;51.084;16.748;2022-08-19T03:37:01;99382.20;;;22.60;67.42
72096;BME280;59968;51.084;16.748;2022-08-19T03:39:29;99380.77;;;22.57;67.53
72096;BME280;59968;51.084;16.748;2022-08-19T03:41:57;99376.54;;;22.54;67.65
72096;BME280;59968;51.084;16.748;2022-08-19T03:44:46;99372.98;;;22.52;67.90
72096;BME280;59968;51.084;16.748;2022-08-19T03:47:14;99370.58;;;22.50;67.75
72096;BME280;59968;51.084;16.748;2022-08-19T03:49:43;99373.14;;;22.48;67.95
72096;BME280;59968;51.084;16.748;2022-08-19T03:52:11;99372.68;;;22.47;68.02
72096;BME280;59968;51.084;16.748;2022-08-19T03:54:38;99379.27;;;22.46;68.03
72096;BME280;59968;51.084;16.748;2022-08-19T03:57:06;99368.20;;;22.30;68.53
72096;BME280;59968;51.084;16.748;2022-08-19T03:59:37;99395.20;;;22.40;68.53
72096;BME280;59968;51.084;16.748;2022-08-19T04:02:10;99396.64;;;22.36;68.56
72096;BME280;59968;51.084;16.748;2022-08-19T04:04:40;99401.70;;;22.32;68.52
72096;BME280;59968;51.084;16.748;2022-08-19T04:07:09;99402.44;;;22.30;68.79
72096;BME280;59968;51.084;16.748;2022-08-19T04:09:37;99406.64;;;22.28;68.86
72096;BME280;59968;51.084;16.748;2022-08-19T04:12:05;99404.00;;;22.28;69.00
72096;BME280;59968;51.084;16.748;2022-08-19T04:14:32;99398.79;;;22.27;68.91
72096;BME280;59968;51.084;16.748;2022-08-19T04:17:01;99396.42;;;22.26;69.13
72096;BME280;59968;51.084;16.748;2022-08-19T04:19:33;99397.48;;;22.29;69.11
72096;BME280;59968;51.084;16.748;2022-08-19T04:22:00;99396.31;;;22.32;69.26
72096;BME280;59968;51.084;16.748;2022-08-19T04:24:28;99392.65;;;22.31;68.95
72096;BME280;59968;51.084;16.748;2022-08-19T04:26:55;99396.16;;;22.39;69.02
72096;BME280;59968;51.084;16.748;2022-08-19T04:29:24;99396.58;;;22.43;69.04
72096;BME280;59968;51.084;16.748;2022-08-19T04:31:55;99394.10;;;22.47;69.05
72096;BME280;59968;51.084;16.748;2022-08-19T04:34:24;99397.16;;;22.50;68.86
72096;BME280;59968;51.084;16.748;2022-08-19T04:36:54;99399.86;;;22.53;69.01
72096;BME280;59968;51.084;16.748;2022-08-19T04:39:28;99398.67;;;22.58;68.95
72096;BME280;59968;51.084;16.748;2022-08-19T04:42:16;99388.98;;;22.57;68.96
72096;BME280;59968;51.084;16.748;2022-08-19T04:45:05;99402.68;;;22.70;69.08
72096;BME280;59968;51.084;16.748;2022-08-19T04:47:41;99400.96;;;22.75;68.63
72096;BME280;59968;51.084;16.748;2022-08-19T04:50:26;99406.18;;;22.80;68.81
72096;BME280;59968;51.084;16.748;2022-08-19T04:52:53;99405.46;;;22.84;68.73
72096;BME280;59968;51.084;16.748;2022-08-19T04:55:22;99400.86;;;22.87;69.05
72096;BME280;59968;51.084;16.748;2022-08-19T04:57:53;99399.75;;;22.90;68.91
72096;BME280;59968;51.084;16.748;2022-08-19T05:00:20;99392.52;;;22.92;68.81
72096;BME280;59968;51.084;16.748;2022-08-19T05:02:51;99378.80;;;22.87;69.03
72096;BME280;59968;51.084;16.748;2022-08-19T05:05:18;99387.23;;;22.98;68.68
72096;BME280;59968;51.084;16.748;2022-08-19T05:07:46;99385.17;;;23.01;68.66
72096;BME280;59968;51.084;16.748;2022-08-19T05:10:13;99392.89;;;23.10;68.65
72096;BME280;59968;51.084;16.748;2022-08-19T05:12:40;99395.61;;;23.17;68.82
72096;BME280;59968;51.084;16.748;2022-08-19T05:15:08;99405.92;;;23.23;69.21
72096;BME280;59968;51.084;16.748;2022-08-19T05:17:35;99408.98;;;23.29;69.02
72096;BME280;59968;51.084;16.748;2022-08-19T05:20:06;99409.05;;;23.34;68.85
72096;BME280;59968;51.084;16.748;2022-08-19T05:22:52;99401.52;;;23.40;69.17
72096;BME280;59968;51.084;16.748;2022-08-19T05:25:21;99399.02;;;23.43;69.24
72096;BME280;59968;51.084;16.748;2022-08-19T05:27:48;99405.21;;;23.50;68.77
72096;BME280;59968;51.084;16.748;2022-08-19T05:30:16;99410.15;;;23.57;68.48
72096;BME280;59968;51.084;16.748;2022-08-19T05:32:43;99417.20;;;23.65;68.83
72096;BME280;59968;51.084;16.748;2022-08-19T05:35:10;99424.15;;;23.71;68.49
72096;BME280;59968;51.084;16.748;2022-08-19T05:37:38;99428.34;;;23.79;68.56
72096;BME280;59968;51.084;16.748;2022-08-19T05:40:07;99422.50;;;23.83;68.45
72096;BME280;59968;51.084;16.748;2022-08-19T05:42:35;99422.02;;;23.85;68.30
72096;BME280;59968;51.084;16.748;2022-08-19T05:45:03;99421.11;;;23.88;68.24
72096;BME280;59968;51.084;16.748;2022-08-19T05:47:31;99423.08;;;23.94;68.30
72096;BME280;59968;51.084;16.748;2022-08-19T05:49:59;99423.52;;;23.99;68.12
72096;BME280;59968;51.084;16.748;2022-08-19T05:52:28;99413.71;;;23.95;67.96
72096;BME280;59968;51.084;16.748;2022-08-19T05:54:56;99437.20;;;24.08;68.06
72096;BME280;59968;51.084;16.748;2022-08-19T05:57:24;99444.17;;;24.16;68.20
72096;BME280;59968;51.084;16.748;2022-08-19T05:59:51;99445.94;;;24.17;67.76
72096;BME280;59968;51.084;16.748;2022-08-19T06:02:26;99448.31;;;24.18;67.65
72096;BME280;59968;51.084;16.748;2022-08-19T06:04:53;99450.25;;;24.23;67.51
72096;BME280;59968;51.084;16.748;2022-08-19T06:07:20;99455.34;;;24.30;67.12
72096;BME280;59968;51.084;16.748;2022-08-19T06:09:48;99464.88;;;24.40;66.82
72096;BME280;59968;51.084;16.748;2022-08-19T06:12:31;99478.92;;;24.54;66.65
72096;BME280;59968;51.084;16.748;2022-08-19T06:15:05;99483.16;;;24.66;66.81
72096;BME280;59968;51.084;16.748;2022-08-19T06:17:34;99479.23;;;24.73;66.46
72096;BME280;59968;51.084;16.748;2022-08-19T06:20:07;99485.06;;;24.82;66.26
72096;BME280;59968;51.084;16.748;2022-08-19T06:22:43;99483.98;;;24.90;65.99
72096;BME280;59968;51.084;16.748;2022-08-19T06:25:12;99485.09;;;25.01;65.55
72096;BME280;59968;51.084;16.748;2022-08-19T06:27:40;99483.11;;;25.15;65.40
72096;BME280;59968;51.084;16.748;2022-08-19T06:30:27;99475.89;;;25.32;64.84
72096;BME280;59968;51.084;16.748;2022-08-19T06:32:55;99487.27;;;25.45;63.97
72096;BME280;59968;51.084;16.748;2022-08-19T06:35:22;99493.17;;;25.59;63.38
72096;BME280;59968;51.084;16.748;2022-08-19T06:37:49;99491.75;;;25.70;63.45
72096;BME280;59968;51.084;16.748;2022-08-19T06:40:16;99499.11;;;25.88;63.43
72096;BME280;59968;51.084;16.748;2022-08-19T06:42:44;99503.87;;;26.04;63.44
72096;BME280;59968;51.084;16.748;2022-08-19T06:45:22;99502.31;;;26.24;63.18
72096;BME280;59968;51.084;16.748;2022-08-19T06:47:52;99519.39;;;26.42;62.19
72096;BME280;59968;51.084;16.748;2022-08-19T06:50:22;99531.05;;;26.58;61.56
72096;BME280;59968;51.084;16.748;2022-08-19T06:52:51;99537.23;;;26.74;61.59
72096;BME280;59968;51.084;16.748;2022-08-19T06:55:19;99528.61;;;26.81;60.47
72096;BME280;59968;51.084;16.748;2022-08-19T06:57:47;99539.17;;;26.97;59.93
72096;BME280;59968;51.084;16.748;2022-08-19T07:00:15;99536.28;;;27.09;58.32
72096;BME280;59968;51.084;16.748;2022-08-19T07:02:43;99535.59;;;27.22;57.17
72096;BME280;59968;51.084;16.748;2022-08-19T07:05:22;99534.48;;;27.36;56.70
72096;BME280;59968;51.084;16.748;2022-08-19T07:07:49;99533.73;;;27.51;55.71
72096;BME280;59968;51.084;16.748;2022-08-19T07:10:18;99534.26;;;27.62;54.71
72096;BME280;59968;51.084;16.748;2022-08-19T07:12:46;99537.46;;;27.74;54.28
72096;BME280;59968;51.084;16.748;2022-08-19T07:15:16;99538.55;;;27.85;53.94
72096;BME280;59968;51.084;16.748;2022-08-19T07:17:45;99538.13;;;27.96;53.43
72096;BME280;59968;51.084;16.748;2022-08-19T07:20:19;99542.27;;;28.06;53.66
72096;BME280;59968;51.084;16.748;2022-08-19T07:22:46;99545.00;;;28.19;54.16
72096;BME280;59968;51.084;16.748;2022-08-19T07:25:14;99545.05;;;28.33;53.10
72096;BME280;59968;51.084;16.748;2022-08-19T07:27:44;99546.65;;;28.39;51.54
72096;BME280;59968;51.084;16.748;2022-08-19T07:30:14;99554.19;;;28.45;51.77
72096;BME280;59968;51.084;16.748;2022-08-19T07:32:43;99552.69;;;28.52;51.62
72096;BME280;59968;51.084;16.748;2022-08-19T07:35:10;99558.68;;;28.55;50.97
72096;BME280;59968;51.084;16.748;2022-08-19T07:37:37;99564.73;;;28.59;51.49
72096;BME280;59968;51.084;16.748;2022-08-19T07:40:07;99570.15;;;28.65;51.36
72096;BME280;59968;51.084;16.748;2022-08-19T07:42:35;99572.64;;;28.65;50.96
72096;BME280;59968;51.084;16.748;2022-08-19T07:45:03;99565.96;;;28.59;50.96
72096;BME280;59968;51.084;16.748;2022-08-19T07:47:34;99573.25;;;28.67;51.34
72096;BME280;59968;51.084;16.748;2022-08-19T07:50:18;99570.76;;;28.73;51.23
72096;BME280;59968;51.084;16.748;2022-08-19T07:52:48;99572.48;;;28.81;50.52
72096;BME280;59968;51.084;16.748;2022-08-19T07:55:19;99566.32;;;28.81;50.44
72096;BME280;59968;51.084;16.748;2022-08-19T07:58:07;99564.06;;;28.89;50.23
72096;BME280;59968;51.084;16.748;2022-08-19T08:00:35;99560.34;;;28.91;49.66
72096;BME280;59968;51.084;16.748;2022-08-19T08:03:03;99557.43;;;28.97;50.37
72096;BME280;59968;51.084;16.748;2022-08-19T08:05:30;99563.59;;;29.13;50.84
72096;BME280;59968;51.084;16.748;2022-08-19T08:08:16;99561.39;;;29.32;49.09
72096;BME280;59968;51.084;16.748;2022-08-19T08:11:04;99562.70;;;29.48;48.83
72096;BME280;59968;51.084;16.748;2022-08-19T08:13:34;99562.36;;;29.63;48.51
72096;BME280;59968;51.084;16.748;2022-08-19T08:16:02;99567.47;;;29.70;47.90
72096;BME280;59968;51.084;16.748;2022-08-19T08:18:30;99574.35;;;29.79;47.71
72096;BME280;59968;51.084;16.748;2022-08-19T08:20:58;99576.27;;;29.88;47.60
72096;BME280;59968;51.084;16.748;2022-08-19T08:23:25;99571.51;;;30.00;47.94
72096;BME280;59968;51.084;16.748;2022-08-19T08:25:55;99572.86;;;30.14;48.19
72096;BME280;59968;51.084;16.748;2022-08-19T08:28:25;99576.64;;;30.28;47.58
72096;BME280;59968;51.084;16.748;2022-08-19T08:30:57;99573.60;;;30.40;47.21
72096;BME280;59968;51.084;16.748;2022-08-19T08:33:27;99573.33;;;30.49;47.03
72096;BME280;59968;51.084;16.748;2022-08-19T08:36:08;99571.48;;;30.56;46.66
72096;BME280;59968;51.084;16.748;2022-08-19T08:38:36;99574.50;;;30.60;46.45
72096;BME280;59968;51.084;16.748;2022-08-19T08:43:58;99575.65;;;30.71;46.61
72096;BME280;59968;51.084;16.748;2022-08-19T08:46:42;99568.44;;;30.73;46.36
72096;BME280;59968;51.084;16.748;2022-08-19T08:52:34;99561.98;;;31.04;45.90
72096;BME280;59968;51.084;16.748;2022-08-19T08:55:10;99562.89;;;31.17;46.27
72096;BME280;59968;51.084;16.748;2022-08-19T09:00:28;99555.60;;;31.46;45.21
72096;BME280;59968;51.084;16.748;2022-08-19T09:02:58;99546.10;;;31.61;44.86
72096;BME280;59968;51.084;16.748;2022-08-19T09:08:58;99544.09;;;31.73;43.96
72096;BME280;59968;51.084;16.748;2022-08-19T09:14:42;99540.73;;;31.87;43.75
72096;BME280;59968;51.084;16.748;2022-08-19T09:17:25;99536.11;;;31.96;43.11
72096;BME280;59968;51.084;16.748;2022-08-19T09:22:41;99536.38;;;32.06;42.58
72096;BME280;59968;51.084;16.748;2022-08-19T09:25:22;99537.95;;;32.07;42.55
72096;BME280;59968;51.084;16.748;2022-08-19T09:27:56;99544.55;;;32.12;42.72
72096;BME280;59968;51.084;16.748;2022-08-19T09:30:38;99544.20;;;32.20;42.18
72096;BME280;59968;51.084;16.748;2022-08-19T09:33:06;99547.74;;;32.31;41.78
72096;BME280;59968;51.084;16.748;2022-08-19T09:35:34;99541.48;;;32.40;41.54
72096;BME280;59968;51.084;16.748;2022-08-19T09:38:20;99537.47;;;32.46;40.93
72096;BME280;59968;51.084;16.748;2022-08-19T09:40:49;99529.75;;;32.44;41.12
72096;BME280;59968;51.084;16.748;2022-08-19T09:43:17;99534.17;;;32.35;40.73
72096;BME280;59968;51.084;16.748;2022-08-19T09:46:01;99543.99;;;32.24;41.04
72096;BME280;59968;51.084;16.748;2022-08-19T09:48:28;99541.84;;;32.14;41.36
72096;BME280;59968;51.084;16.748;2022-08-19T09:51:02;99547.98;;;32.04;41.52
72096;BME280;59968;51.084;16.748;2022-08-19T09:53:31;99551.06;;;32.02;41.69
72096;BME280;59968;51.084;16.748;2022-08-19T09:56:01;99551.48;;;32.09;42.09
72096;BME280;59968;51.084;16.748;2022-08-19T09:58:31;99557.59;;;32.19;41.70
72096;BME280;59968;51.084;16.748;2022-08-19T10:00:59;99563.42;;;32.26;41.58
72096;BME280;59968;51.084;16.748;2022-08-19T10:03:29;99562.88;;;32.33;41.07
72096;BME280;59968;51.084;16.748;2022-08-19T10:05:59;99567.67;;;32.39;41.37
72096;BME280;59968;51.084;16.748;2022-08-19T10:08:30;99563.27;;;32.50;41.50
72096;BME280;59968;51.084;16.748;2022-08-19T10:10:59;99567.64;;;32.64;40.88
72096;BME280;59968;51.084;16.748;2022-08-19T10:13:48;99567.49;;;32.73;41.05
72096;BME280;59968;51.084;16.748;2022-08-19T10:16:20;99567.96;;;32.73;40.91
72096;BME280;59968;51.084;16.748;2022-08-19T10:18:56;99567.27;;;32.65;40.41
72096;BME280;59968;51.084;16.748;2022-08-19T10:21:29;99570.02;;;32.57;40.55
72096;BME280;59968;51.084;16.748;2022-08-19T10:24:02;99565.96;;;32.58;41.19
72096;BME280;59968;51.084;16.748;2022-08-19T10:26:34;99555.23;;;32.58;40.87
72096;BME280;59968;51.084;16.748;2022-08-19T10:29:04;99559.33;;;32.71;40.42
72096;BME280;59968;51.084;16.748;2022-08-19T10:31:35;99559.33;;;32.79;40.22
72096;BME280;59968;51.084;16.748;2022-08-19T10:34:24;99553.28;;;32.92;40.07
72096;BME280;59968;51.084;16.748;2022-08-19T10:36:56;99551.36;;;33.07;39.50
72096;BME280;59968;51.084;16.748;2022-08-19T10:39:30;99551.39;;;33.24;39.68
72096;BME280;59968;51.084;16.748;2022-08-19T10:42:07;99550.09;;;33.39;39.02
72096;BME280;59968;51.084;16.748;2022-08-19T10:44:34;99553.20;;;33.49;39.20
72096;BME280;59968;51.084;16.748;2022-08-19T10:47:03;99551.80;;;33.61;38.54
72096;BME280;59968;51.084;16.748;2022-08-19T10:49:44;99551.44;;;33.72;38.44
72096;BME280;59968;51.084;16.748;2022-08-19T10:52:30;99553.44;;;33.77;38.32
72096;BME280;59968;51.084;16.748;2022-08-19T10:55:01;99551.88;;;33.75;38.00
72096;BME280;59968;51.084;16.748;2022-08-19T10:57:48;99556.45;;;33.68;37.77
72096;BME280;59968;51.084;16.748;2022-08-19T11:00:33;99559.47;;;33.61;37.88
72096;BME280;59968;51.084;16.748;2022-08-19T11:03:05;99555.48;;;33.56;38.13
72096;BME280;59968;51.084;16.748;2022-08-19T11:05:32;99551.98;;;33.54;37.55
72096;BME280;59968;51.084;16.748;2022-08-19T11:08:10;99557.83;;;33.51;37.97
72096;BME280;59968;51.084;16.748;2022-08-19T11:10:55;99563.40;;;33.56;38.06
72096;BME280;59968;51.084;16.748;2022-08-19T11:13:25;99555.66;;;33.54;37.55
72096;BME280;59968;51.084;16.748;2022-08-19T11:16:08;99563.56;;;33.61;37.37
72096;BME280;59968;51.084;16.748;2022-08-19T11:18:50;99572.89;;;33.63;36.47
72096;BME280;59968;51.084;16.748;2022-08-19T11:21:32;99574.23;;;33.61;35.84
72096;BME280;59968;51.084;16.748;2022-08-19T11:24:10;99577.33;;;33.50;36.10
72096;BME280;59968;51.084;16.748;2022-08-19T11:26:39;99564.81;;;33.37;36.50
72096;BME280;59968;51.084;16.748;2022-08-19T11:29:11;99573.48;;;33.42;37.04
72096;BME280;59968;51.084;16.748;2022-08-19T11:31:44;99572.25;;;33.40;36.95
72096;BME280;59968;51.084;16.748;2022-08-19T11:34:15;99568.02;;;33.36;36.64
72096;BME280;59968;51.084;16.748;2022-08-19T11:36:45;99573.12;;;33.38;36.71
72096;BME280;59968;51.084;16.748;2022-08-19T11:39:15;99574.81;;;33.43;36.35
72096;BME280;59968;51.084;16.748;2022-08-19T11:41:43;99569.36;;;33.43;35.62
72096;BME280;59968;51.084;16.748;2022-08-19T11:44:13;99564.39;;;33.45;35.89
72096;BME280;59968;51.084;16.748;2022-08-19T11:46:43;99567.45;;;33.48;35.70
72096;BME280;59968;51.084;16.748;2022-08-19T11:49:15;99566.11;;;33.50;35.52
72096;BME280;59968;51.084;16.748;2022-08-19T11:51:43;99565.54;;;33.52;35.51
72096;BME280;59968;51.084;16.748;2022-08-19T11:54:11;99561.52;;;33.58;35.55
72096;BME280;59968;51.084;16.748;2022-08-19T11:56:39;99559.05;;;33.69;35.09
72096;BME280;59968;51.084;16.748;2022-08-19T11:59:07;99561.13;;;33.78;34.76
72096;BME280;59968;51.084;16.748;2022-08-19T12:01:40;99563.30;;;33.89;34.76
72096;BME280;59968;51.084;16.748;2022-08-19T12:04:09;99561.96;;;33.98;34.69
72096;BME280;59968;51.084;16.748;2022-08-19T12:06:40;99563.23;;;34.04;34.27
72096;BME280;59968;51.084;16.748;2022-08-19T12:09:08;99559.83;;;34.12;34.30
72096;BME280;59968;51.084;16.748;2022-08-19T12:11:38;99554.90;;;34.12;33.83
72096;BME280;59968;51.084;16.748;2022-08-19T12:14:08;99564.17;;;34.21;33.59
72096;BME280;59968;51.084;16.748;2022-08-19T12:16:41;99563.15;;;34.25;33.02
72096;BME280;59968;51.084;16.748;2022-08-19T12:19:17;99564.25;;;34.26;32.94
72096;BME280;59968;51.084;16.748;2022-08-19T12:21:51;99558.02;;;34.21;33.04
72096;BME280;59968;51.084;16.748;2022-08-19T12:24:19;99559.44;;;34.17;33.42
72096;BME280;59968;51.084;16.748;2022-08-19T12:26:50;99555.79;;;34.10;33.87
72096;BME280;59968;51.084;16.748;2022-08-19T12:29:29;99562.58;;;34.06;34.47
72096;BME280;59968;51.084;16.748;2022-08-19T12:31:58;99561.56;;;34.02;35.26
72096;BME280;59968;51.084;16.748;2022-08-19T12:34:32;99565.06;;;34.00;35.60
72096;BME280;59968;51.084;16.748;2022-08-19T12:37:02;99564.77;;;34.01;35.44
72096;BME280;59968;51.084;16.748;2022-08-19T12:39:33;99565.25;;;34.01;35.23
72096;BME280;59968;51.084;16.748;2022-08-19T12:42:00;99567.21;;;34.04;35.82
72096;BME280;59968;51.084;16.748;2022-08-19T12:44:28;99565.64;;;34.01;34.92
72096;BME280;59968;51.084;16.748;2022-08-19T12:47:00;99568.65;;;33.97;35.12
72096;BME280;59968;51.084;16.748;2022-08-19T12:49:28;99569.34;;;33.97;35.44
72096;BME280;59968;51.084;16.748;2022-08-19T12:52:15;99567.73;;;33.99;35.12
72096;BME280;59968;51.084;16.748;2022-08-19T12:54:50;99562.96;;;33.92;35.06
72096;BME280;59968;51.084;16.748;2022-08-19T12:57:23;99565.77;;;33.79;34.77
72096;BME280;59968;51.084;16.748;2022-08-19T13:00:06;99565.70;;;33.66;35.13
72096;BME280;59968;51.084;16.748;2022-08-19T13:02:44;99566.98;;;33.56;35.42
72096;BME280;59968;51.084;16.748;2022-08-19T13:05:20;99564.67;;;33.51;35.67
72096;BME280;59968;51.084;16.748;2022-08-19T13:07:51;99562.16;;;33.48;35.33
72096;BME280;59968;51.084;16.748;2022-08-19T13:10:20;99553.42;;;33.40;35.72
72096;BME280;59968;51.084;16.748;2022-08-19T13:12:50;99551.54;;;33.42;36.00
72096;BME280;59968;51.084;16.748;2022-08-19T13:15:19;99551.27;;;33.36;35.81
72096;BME280;59968;51.084;16.748;2022-08-19T13:17:52;99548.67;;;33.28;36.02
72096;BME280;59968;51.084;16.748;2022-08-19T13:20:20;99547.27;;;33.21;35.84
72096;BME280;59968;51.084;16.748;2022-08-19T13:22:48;99545.55;;;33.15;36.42
72096;BME280;59968;51.084;16.748;2022-08-19T13:25:16;99542.48;;;33.12;36.82
72096;BME280;59968;51.084;16.748;2022-08-19T13:27:46;99533.90;;;33.04;37.35
72096;BME280;59968;51.084;16.748;2022-08-19T13:30:15;99540.59;;;33.13;37.66